createdAt,value
2018-02-06T00:02:11.429Z,101585.19
2018-02-06T00:04:41.498Z,101576.97
2018-02-06T00:07:10.836Z,101575.23
2018-02-06T00:09:40.245Z,101576.95
2018-02-06T00:12:09.772Z,101563.09
2018-02-06T00:14:39.895Z,101564.81
2018-02-06T00:17:10.031Z,101558.33
2018-02-06T00:19:39.415Z,101549.23
2018-02-06T00:22:08.473Z,101557.46
2018-02-06T00:24:37.752Z,101538.44
2018-02-06T00:27:08.169Z,101538.44
2018-02-06T00:29:37.773Z,101529.35
2018-02-06T00:32:07.203Z,101531.06
2018-02-06T00:34:36.480Z,101518.08
2018-02-06T00:37:05.777Z,101516.77
2018-02-06T00:39:35.239Z,101512.42
2018-02-06T00:42:05.540Z,101505.95
2018-02-06T00:44:34.842Z,101505.95
2018-02-06T00:47:04.247Z,101494.70
2018-02-06T00:49:33.531Z,101490.34
2018-02-06T00:52:03.242Z,101485.61
2018-02-06T00:54:32.504Z,101480.41
2018-02-06T00:57:01.790Z,101482.13
2018-02-06T00:59:31.838Z,101485.17
2018-02-06T01:02:01.116Z,101476.52
2018-02-06T01:04:31.174Z,101470.43
2018-02-06T01:07:00.458Z,101465.25
2018-02-06T01:09:29.819Z,101451.39
2018-02-06T01:11:59.914Z,101450.96
2018-02-06T01:14:29.341Z,101454.45
2018-02-06T01:16:59.532Z,101456.16
2018-02-06T01:19:30.746Z,101452.70
2018-02-06T01:22:00.042Z,101453.11
2018-02-06T01:24:29.568Z,101450.97
2018-02-06T01:26:58.946Z,101444.90
2018-02-06T01:29:28.236Z,101438.42
2018-02-06T01:31:57.520Z,101441.42
2018-02-06T01:34:27.633Z,101437.13
2018-02-06T01:36:56.919Z,101436.25
2018-02-06T01:39:26.196Z,101439.27
2018-02-06T01:41:55.712Z,101432.36
2018-02-06T01:44:25.327Z,101430.19
2018-02-06T01:46:54.696Z,101428.88
2018-02-06T01:49:24.113Z,101423.25
2018-02-06T01:51:53.442Z,101412.45
2018-02-06T01:54:23.910Z,101411.58
2018-02-06T01:56:54.066Z,101417.19
2018-02-06T01:59:23.362Z,101407.67
2018-02-06T02:01:52.756Z,101405.08
2018-02-06T02:04:22.062Z,101404.66
2018-02-06T02:06:51.366Z,101395.55
2018-02-06T02:09:20.654Z,101396.86
2018-02-06T02:11:50.264Z,101395.12
2018-02-06T02:14:20.602Z,101382.57
2018-02-06T02:16:50.984Z,101378.26
2018-02-06T02:19:20.399Z,101367.45
2018-02-06T02:21:49.720Z,101364.84
2018-02-06T02:24:19.222Z,101361.83
2018-02-06T02:26:48.532Z,101361.39
2018-02-06T02:29:17.924Z,101350.13
2018-02-06T02:31:47.354Z,101349.28
2018-02-06T02:34:16.654Z,101344.53
2018-02-06T02:36:45.920Z,101343.21
2018-02-06T02:39:15.223Z,101341.95
2018-02-06T04:38:59.379Z,101191.27
2018-02-06T04:41:29.620Z,101191.69
2018-02-06T04:43:58.918Z,101188.20
2018-02-06T04:46:28.241Z,101188.61
2018-02-06T04:48:57.372Z,101184.30
2018-02-06T04:51:27.527Z,101183.44
2018-02-06T04:53:57.034Z,101178.23
2018-02-06T04:56:26.329Z,101173.92
2018-02-06T04:58:55.605Z,101173.46
2018-02-06T05:01:24.876Z,101173.91
2018-02-06T05:03:54.166Z,101170.02
2018-02-06T05:06:23.714Z,101170.44
2018-02-06T05:08:53.882Z,101158.75
2018-02-06T05:11:23.165Z,101159.19
2018-02-06T05:13:52.446Z,101159.63
2018-02-06T05:16:21.730Z,101159.61
2018-02-06T05:18:51.784Z,101148.36
2018-02-06T05:21:21.189Z,101144.05
2018-02-06T05:23:50.487Z,101143.15
2018-02-06T05:26:19.768Z,101146.19
2018-02-06T05:28:50.111Z,101143.15
2018-02-06T05:31:19.378Z,101144.47
2018-02-06T05:33:49.431Z,101150.11
2018-02-06T05:36:18.848Z,101144.05
2018-02-06T05:38:48.128Z,101143.59
2018-02-06T05:41:17.384Z,101130.16
2018-02-06T05:43:46.674Z,101139.23
2018-02-06T05:46:15.999Z,101131.45
2018-02-06T05:48:45.305Z,101123.64
2018-02-06T05:51:15.365Z,101121.92
2018-02-06T05:53:44.761Z,101120.18
2018-02-06T05:56:14.086Z,101121.02
2018-02-06T05:58:43.518Z,101119.25
2018-02-06T06:01:13.440Z,101109.72
2018-02-06T06:03:42.714Z,101109.23
2018-02-06T06:06:11.998Z,101106.62
2018-02-06T06:08:41.380Z,101102.29
2018-02-06T06:11:10.783Z,101104.42
2018-02-06T06:13:40.078Z,101101.37
2018-02-06T06:16:09.344Z,101101.34
2018-02-06T06:18:39.412Z,101093.95
2018-02-06T06:21:08.751Z,101097.00
2018-02-06T06:23:38.283Z,101091.76
2018-02-06T06:26:08.320Z,101089.12
2018-02-06T06:28:37.792Z,101088.67
2018-02-06T06:31:07.956Z,101085.23
2018-02-06T06:33:37.372Z,101085.67
2018-02-06T06:36:06.635Z,101090.84
2018-02-06T06:38:36.814Z,101088.68
2018-02-06T06:41:06.080Z,101081.73
2018-02-06T06:43:35.380Z,101080.84
2018-02-06T06:46:04.673Z,101070.42
2018-02-06T06:48:33.946Z,101080.34
2018-02-06T06:51:03.991Z,101075.13
2018-02-06T06:53:33.586Z,101076.85
2018-02-06T06:56:03.666Z,101074.25
2018-02-06T06:58:33.025Z,101067.31
2018-02-06T07:01:02.442Z,101068.16
2018-02-06T07:03:31.941Z,101068.61
2018-02-06T07:06:01.331Z,101064.28
2018-02-06T07:08:30.603Z,101071.17
2018-02-06T07:11:00.667Z,101068.60
2018-02-06T07:13:29.962Z,101068.66
2018-02-06T07:15:59.459Z,101071.27
2018-02-06T07:18:28.910Z,101069.56
2018-02-06T07:21:00.818Z,101068.72
2018-02-06T07:23:30.117Z,101064.86
2018-02-06T07:25:59.440Z,101067.47
2018-02-06T07:28:28.915Z,101068.34
2018-02-06T07:30:59.070Z,101069.62
2018-02-06T07:33:28.546Z,101065.73
2018-02-06T07:35:57.845Z,101063.55
2018-02-06T07:38:27.112Z,101067.83
2018-02-06T07:40:57.173Z,101064.70
2018-02-06T07:43:26.588Z,101065.52
2018-02-06T07:45:56.748Z,101062.89
2018-02-06T07:48:26.033Z,101058.50
2018-02-06T07:50:55.310Z,101061.48
2018-02-06T07:53:24.689Z,101069.22
2018-02-06T07:55:54.893Z,101064.42
2018-02-06T07:58:24.995Z,101063.06
2018-02-06T08:00:54.540Z,101060.77
2018-02-06T08:03:23.867Z,101058.95
2018-02-06T08:05:53.132Z,101056.77
2018-02-06T08:08:23.307Z,101065.84
2018-02-06T08:10:52.918Z,101071.42
2018-02-06T08:13:22.221Z,101071.39
2018-02-06T08:15:51.509Z,101065.68
2018-02-06T08:18:20.785Z,101066.88
2018-02-06T08:20:50.234Z,101061.07
2018-02-06T08:23:19.638Z,101064.01
2018-02-06T08:25:49.030Z,101054.88
2018-02-06T08:28:18.307Z,101055.28
2018-02-06T08:30:47.604Z,101052.20
2018-02-06T08:33:17.027Z,101045.14
2018-02-06T08:35:46.134Z,101030.36
2018-02-06T08:38:15.415Z,101033.42
2018-02-06T08:40:44.678Z,101035.02
2018-02-06T08:43:14.734Z,101029.28
2018-02-06T08:45:44.006Z,101027.94
2018-02-06T08:48:13.499Z,101029.63
2018-02-06T08:50:43.549Z,101030.02
2018-02-06T08:53:12.827Z,101030.81
2018-02-06T08:55:42.130Z,101015.12
2018-02-06T08:58:11.527Z,101005.51
2018-02-06T09:00:40.812Z,101005.45
2018-02-06T09:03:10.845Z,101012.75
2018-02-06T09:05:40.292Z,101008.65
2018-02-06T09:08:09.740Z,100997.13
2018-02-06T09:10:39.798Z,101000.14
2018-02-06T09:13:09.140Z,101001.53
2018-02-06T09:15:39.262Z,100996.74
2018-02-06T09:18:08.750Z,101002.38
2018-02-06T09:20:38.028Z,100994.61
2018-02-06T09:23:07.312Z,100987.87
2018-02-06T09:25:36.597Z,100990.38
2018-02-06T09:28:06.632Z,100982.23
2018-02-06T09:30:35.951Z,100989.91
2018-02-06T09:33:05.288Z,100994.72
2018-02-06T09:35:34.672Z,100991.42
2018-02-06T09:38:03.954Z,100987.58
2018-02-06T09:40:33.260Z,100987.91
2018-02-06T09:43:02.543Z,100987.72
2018-02-06T09:45:31.877Z,100989.66
2018-02-06T09:48:01.438Z,100993.66
2018-02-06T09:50:30.728Z,100994.59
2018-02-06T09:53:00.797Z,100996.08
2018-02-06T09:55:30.085Z,100989.65
2018-02-06T09:57:59.349Z,100992.25
2018-02-06T10:00:29.543Z,100986.31
2018-02-06T10:02:58.800Z,100991.03
2018-02-06T10:05:28.093Z,100993.09
2018-02-06T10:07:57.383Z,100991.57
2018-02-06T10:10:26.705Z,100988.59
2018-02-06T10:12:55.978Z,100986.89
2018-02-06T10:15:25.384Z,100983.17
2018-02-06T10:17:54.876Z,100986.35
2018-02-06T10:20:25.036Z,100981.92
2018-02-06T10:22:54.330Z,100985.38
2018-02-06T10:25:23.640Z,100986.08
2018-02-06T10:27:53.875Z,100981.72
2018-02-06T10:30:23.896Z,100980.60
2018-02-06T10:32:53.323Z,100978.17
2018-02-06T10:35:22.673Z,100971.43
2018-02-06T10:37:51.968Z,100975.53
2018-02-06T10:40:21.231Z,100980.98
2018-02-06T10:42:51.298Z,100977.34
2018-02-06T10:45:20.606Z,100964.19
2018-02-06T10:47:49.938Z,100958.16
2018-02-06T10:50:19.906Z,100960.05
2018-02-06T10:52:49.179Z,100959.27
2018-02-06T10:55:19.480Z,100951.23
2018-02-06T10:57:48.754Z,100950.13
2018-02-06T11:00:18.046Z,100943.70
2018-02-06T11:02:47.313Z,100953.71
2018-02-06T11:05:17.423Z,100950.84
2018-02-06T11:07:46.873Z,100945.78
2018-02-06T11:10:16.465Z,100939.84
2018-02-06T11:12:45.732Z,100936.28
2018-02-06T11:15:15.765Z,100934.98
2018-02-06T11:17:45.906Z,100921.58
2018-02-06T11:20:14.928Z,100924.33
2018-02-06T11:22:44.233Z,100915.03
2018-02-06T11:25:13.529Z,100920.99
2018-02-06T11:27:42.974Z,100919.28
2018-02-06T11:30:13.062Z,100917.84
2018-02-06T11:32:42.398Z,100914.25
2018-02-06T11:35:12.444Z,100906.77
2018-02-06T11:37:41.932Z,100900.06
2018-02-06T11:40:11.217Z,100895.20
2018-02-06T11:42:41.270Z,100895.95
2018-02-06T11:45:10.572Z,100891.16
2018-02-06T11:47:39.870Z,100889.70
2018-02-06T11:50:09.152Z,100888.76
2018-02-06T11:52:38.573Z,100896.45
2018-02-06T11:55:07.855Z,100886.91
2018-02-06T11:57:36.945Z,100873.47
2018-02-06T12:00:06.892Z,100869.98
2018-02-06T12:02:36.166Z,100863.41
2018-02-06T12:05:06.603Z,100866.78
2018-02-06T12:07:36.016Z,100856.28
2018-02-06T12:10:05.370Z,100856.75
2018-02-06T12:12:34.738Z,100852.91
2018-02-06T12:15:03.996Z,100846.61
2018-02-06T12:17:34.490Z,100846.42
2018-02-06T12:20:03.748Z,100850.22
2018-02-06T12:22:33.045Z,100852.39
2018-02-06T12:25:02.456Z,100853.14
2018-02-06T12:27:31.736Z,100852.67
2018-02-06T12:30:01.025Z,100847.80
2018-02-06T12:32:31.056Z,100845.45
2018-02-06T12:35:00.403Z,100847.63
2018-02-06T12:37:29.662Z,100856.70
2018-02-06T12:39:58.953Z,100847.31
2018-02-06T12:42:29.413Z,100840.22
2018-02-06T12:44:58.696Z,100833.59
2018-02-06T12:47:28.213Z,100820.08
2018-02-06T12:49:57.488Z,100820.42
2018-02-06T12:52:26.747Z,100809.66
2018-02-06T12:54:56.043Z,100812.12
2018-02-06T12:57:25.390Z,100812.30
2018-02-06T12:59:55.443Z,100809.41
2018-02-06T13:02:24.914Z,100802.05
2018-02-06T13:04:55.065Z,100806.92
2018-02-06T13:07:24.337Z,100813.50
2018-02-06T13:09:54.599Z,100809.41
2018-02-06T13:12:23.883Z,100794.04
2018-02-06T13:14:53.303Z,100801.00
2018-02-06T13:17:22.583Z,100796.52
2018-02-06T13:19:51.977Z,100801.84
2018-02-06T13:22:21.269Z,100801.00
2018-02-06T13:24:50.532Z,100803.19
2018-02-06T13:27:19.852Z,100800.53
2018-02-06T13:29:49.876Z,100797.48
2018-02-06T13:32:19.934Z,100800.18
2018-02-06T13:34:49.496Z,100794.56
2018-02-06T13:37:19.572Z,100799.12
2018-02-06T13:39:48.846Z,100793.66
2018-02-06T13:42:18.100Z,100794.88
2018-02-06T13:44:47.546Z,100789.18
2018-02-06T13:47:16.863Z,100793.14
2018-02-06T13:49:46.219Z,100794.36
2018-02-06T13:52:16.277Z,100797.33
2018-02-06T13:54:45.567Z,100802.22
2018-02-06T13:57:14.876Z,100795.00
2018-02-06T13:59:44.169Z,100799.80
2018-02-06T14:02:14.418Z,100790.81
2018-02-06T14:04:43.672Z,100796.95
2018-02-06T14:07:13.721Z,100795.52
2018-02-06T14:09:43.026Z,100800.63
2018-02-06T14:12:13.244Z,100794.28
2018-02-06T14:14:43.362Z,100793.77
2018-02-06T14:17:12.808Z,100793.89
2018-02-06T14:19:42.110Z,100799.20
2018-02-06T14:22:11.368Z,100810.48
2018-02-06T14:24:40.767Z,100796.98
2018-02-06T14:27:10.332Z,100790.28
2018-02-06T14:29:39.831Z,100789.88
2018-02-06T14:32:10.170Z,100785.81
2018-02-06T14:34:40.113Z,100778.25
2018-02-06T14:37:09.240Z,100779.72
2018-02-06T14:39:38.524Z,100780.75
2018-02-06T14:42:08.137Z,100774.45
2018-02-06T14:44:37.533Z,100769.27
2018-02-06T14:47:06.943Z,100772.72
2018-02-06T14:49:36.630Z,100772.59
2018-02-06T14:52:06.198Z,100779.55
2018-02-06T14:54:36.254Z,100778.25
2018-02-06T14:57:05.546Z,100782.16
2018-02-06T14:59:34.665Z,100782.16
2018-02-06T15:02:03.968Z,100782.87
2018-02-06T15:04:33.233Z,100784.91
2018-02-06T15:07:03.285Z,100777.22
2018-02-06T15:09:32.584Z,100778.52
2018-02-06T15:12:01.866Z,100783.89
2018-02-06T15:14:31.426Z,100776.20
2018-02-06T15:17:00.716Z,100780.29
2018-02-06T15:19:30.003Z,100778.69
2018-02-06T15:21:59.502Z,100777.31
2018-02-06T15:24:28.824Z,100774.20
2018-02-06T15:26:58.472Z,100765.50
2018-02-06T15:29:28.031Z,100761.66
2018-02-06T15:31:57.525Z,100764.33
2018-02-06T15:34:26.992Z,100761.89
2018-02-06T15:36:56.642Z,100764.91
2018-02-06T15:39:26.613Z,100764.91
2018-02-06T15:41:57.831Z,100769.29
2018-02-06T15:44:27.095Z,100769.12
2018-02-06T15:46:56.501Z,100775.03
2018-02-06T15:49:25.904Z,100769.45
2018-02-06T15:51:55.403Z,100765.50
2018-02-06T15:54:24.505Z,100768.91
2018-02-06T15:56:53.986Z,100776.70
2018-02-06T15:59:23.377Z,100769.64
2018-02-06T16:01:52.732Z,100777.28
2018-02-06T16:04:22.068Z,100775.08
2018-02-06T16:06:51.340Z,100773.73
2018-02-06T16:09:20.890Z,100767.17
2018-02-06T16:11:50.941Z,100769.31
2018-02-06T16:14:20.586Z,100771.88
2018-02-06T16:16:50.772Z,100769.74
2018-02-06T16:19:20.669Z,100779.61
2018-02-06T16:21:50.174Z,100780.83
2018-02-06T16:24:20.011Z,100777.85
2018-02-06T16:26:49.328Z,100774.11
2018-02-06T16:29:18.621Z,100772.00
2018-02-06T16:31:47.893Z,100772.00
2018-02-06T16:34:17.296Z,100771.63
2018-02-06T16:36:46.607Z,100772.70
2018-02-06T16:39:17.316Z,100774.11
2018-02-06T16:41:47.624Z,100772.06
2018-02-06T16:44:17.278Z,100772.59
2018-02-06T16:46:46.534Z,100777.84
2018-02-06T16:49:16.611Z,100776.58
2018-02-06T16:51:45.993Z,100782.66
2018-02-06T16:54:15.284Z,100784.40
2018-02-06T16:56:45.682Z,100785.70
2018-02-06T16:59:15.936Z,100779.09
2018-02-06T17:01:45.347Z,100786.05
2018-02-06T17:04:14.612Z,100790.39
2018-02-06T17:06:44.657Z,100799.92
2018-02-06T17:09:14.078Z,100799.21
2018-02-06T17:11:43.421Z,100802.19
2018-02-06T17:14:12.733Z,100802.56
2018-02-06T17:16:42.902Z,100795.23
2018-02-06T17:19:13.260Z,100796.07
2018-02-06T17:21:44.717Z,100794.36
2018-02-06T17:24:14.182Z,100795.11
2018-02-06T17:26:43.793Z,100794.11
2018-02-06T17:29:13.063Z,100799.27
2018-02-06T17:31:43.119Z,100790.59
2018-02-06T17:34:12.387Z,100793.55
2018-02-06T17:36:42.484Z,100787.86
2018-02-06T17:39:12.853Z,100789.06
2018-02-06T17:41:42.263Z,100792.55
2018-02-06T17:44:11.658Z,100798.50
2018-02-06T17:46:41.553Z,100793.68
2018-02-06T17:49:12.005Z,100790.57
2018-02-06T17:51:41.301Z,100794.88
2018-02-06T17:54:10.596Z,100794.88
2018-02-06T17:56:40.173Z,100790.17
2018-02-06T17:59:10.434Z,100789.73
2018-02-06T18:01:39.723Z,100798.90
2018-02-06T18:04:08.806Z,100803.25
2018-02-06T18:06:39.061Z,100808.44
2018-02-06T18:09:08.780Z,100808.30
2018-02-06T18:11:38.389Z,100812.52
2018-02-06T18:14:09.247Z,100821.15
2018-02-06T18:16:39.532Z,100821.52
2018-02-06T18:19:08.871Z,100823.22
2018-02-06T18:21:38.157Z,100825.40
2018-02-06T18:24:07.741Z,100822.31
2018-02-06T18:26:37.218Z,100815.86
2018-02-06T18:29:07.369Z,100818.10
2018-02-06T18:31:36.946Z,100816.33
2018-02-06T18:34:07.083Z,100815.89
2018-02-06T18:36:36.548Z,100821.52
2018-02-06T18:39:05.225Z,100822.89
2018-02-06T18:41:34.485Z,100821.88
2018-02-06T18:44:04.483Z,100826.73
2018-02-06T18:46:35.137Z,100823.32
2018-02-06T18:49:05.049Z,100828.95
2018-02-06T18:51:36.748Z,100828.98
2018-02-06T18:54:07.188Z,100829.08
2018-02-06T18:58:01.338Z,100830.62
2018-02-06T19:00:30.907Z,100832.02
2018-02-06T19:03:01.468Z,100823.45
2018-02-06T19:05:31.837Z,100826.90
2018-02-06T19:08:03.364Z,100838.64
2018-02-06T19:10:32.852Z,100832.02
2018-02-06T19:13:03.215Z,100831.05
2018-02-06T19:15:34.944Z,100824.83
2018-02-06T19:18:04.620Z,100817.53
2018-02-06T19:20:34.236Z,100817.94
2018-02-06T19:23:03.904Z,100827.41
2018-02-06T19:25:33.067Z,100825.63
2018-02-06T19:28:03.421Z,100829.08
2018-02-06T19:30:32.988Z,100820.95
2018-02-06T19:33:03.113Z,100824.00
2018-02-06T19:35:32.613Z,100815.30
2018-02-06T19:38:02.129Z,100820.85
2018-02-06T19:40:31.732Z,100820.41
2018-02-06T19:43:01.246Z,100829.05
2018-02-06T19:45:30.581Z,100829.95
2018-02-06T19:48:00.109Z,100831.19
2018-02-06T19:50:38.832Z,100832.86
2018-02-06T19:53:08.987Z,100830.15
2018-02-06T19:55:38.346Z,100829.17
2018-02-06T19:58:08.757Z,100833.42
2018-02-06T20:00:39.458Z,100835.09
2018-02-06T20:03:09.317Z,100840.72
2018-02-06T20:05:39.141Z,100836.77
2018-02-06T20:08:08.805Z,100836.30
2018-02-06T20:10:38.507Z,100831.00
2018-02-06T20:13:07.600Z,100830.93
2018-02-06T20:15:37.114Z,100832.17
2018-02-06T20:18:06.825Z,100830.03
2018-02-06T20:20:36.328Z,100825.27
2018-02-06T20:23:05.782Z,100824.00
2018-02-06T20:25:35.809Z,100817.91
2018-02-06T20:28:06.039Z,100817.91
2018-02-06T20:30:35.502Z,100819.61
2018-02-06T20:33:04.910Z,100821.68
2018-02-06T20:35:34.206Z,100817.26
2018-02-06T20:38:03.242Z,100825.02
2018-02-06T20:40:32.498Z,100828.47
2018-02-06T20:43:01.791Z,100825.85
2018-02-06T20:45:31.145Z,100828.06
2018-02-06T20:48:00.677Z,100832.45
2018-02-06T20:50:30.131Z,100829.41
2018-02-06T20:53:11.073Z,100834.16
2018-02-06T20:55:40.355Z,100835.50
2018-02-06T20:58:09.662Z,100834.56
2018-02-06T21:00:39.150Z,100831.05
2018-02-06T21:03:08.434Z,100833.62
2018-02-06T21:05:38.673Z,100828.36
2018-02-06T21:08:07.936Z,100827.02
2018-02-06T21:10:37.892Z,100824.52
2018-02-06T21:13:09.002Z,100823.24
2018-02-06T21:15:39.054Z,100825.78
2018-02-06T21:18:08.316Z,100829.63
2018-02-06T21:20:38.562Z,100823.92
2018-02-06T21:23:07.821Z,100827.37
2018-02-06T21:25:37.211Z,100826.50
2018-02-06T21:28:06.515Z,100827.34
2018-02-06T21:30:36.254Z,100827.84
2018-02-06T21:33:06.351Z,100829.98
2018-02-06T21:35:35.689Z,100835.64
2018-02-06T21:38:05.929Z,100842.61
2018-02-06T21:40:37.101Z,100840.84
2018-02-06T21:43:08.273Z,100840.40
2018-02-06T21:45:39.120Z,100840.77
2018-02-06T21:50:35.456Z,100844.28
2018-02-06T21:55:30.367Z,100846.89
2018-02-06T22:00:27.012Z,100849.15
2018-02-06T22:05:22.048Z,100856.29
2018-02-06T22:10:16.612Z,100860.31
2018-02-06T22:15:11.720Z,100863.51
2018-02-06T22:20:06.780Z,100862.84
2018-02-06T22:25:01.706Z,100862.25
2018-02-06T22:29:56.282Z,100854.55
2018-02-06T22:34:51.354Z,100866.39
2018-02-06T22:39:48.116Z,100869.54
2018-02-06T22:44:43.455Z,100875.29
2018-02-06T22:49:37.730Z,100870.60
2018-02-06T22:54:32.122Z,100866.34
2018-02-06T22:59:26.761Z,100866.81
2018-02-06T23:04:22.805Z,100864.11
2018-02-06T23:09:17.121Z,100862.67
2018-02-06T23:14:11.423Z,100870.97
2018-02-06T23:19:09.677Z,100859.19
2018-02-06T23:24:03.763Z,100866.63
2018-02-06T23:28:58.601Z,100863.11
2018-02-06T23:33:53.805Z,100874.36
2018-02-06T23:38:48.571Z,100879.95
2018-02-06T23:43:43.574Z,100876.43
2018-02-06T23:48:37.891Z,100880.38
2018-02-06T23:53:33.033Z,100880.85
2018-02-06T23:58:27.672Z,100874.83
